sensor_id;sensor_type;location;lat;lon;timestamp;P1;durP1;ratioP1;P2;durP2;ratioP2
44722;SDS011;30451;48.638;10.624;2023-12-20T00:01:02;1.67;;;0.90;;
44722;SDS011;30451;48.638;10.624;2023-12-20T00:03:28;2.08;;;1.00;;
44722;SDS011;30451;48.638;10.624;2023-12-20T00:05:54;1.90;;;1.02;;
44722;SDS011;30451;48.638;10.624;2023-12-20T00:08:20;1.92;;;1.10;;
44722;SDS011;30451;48.638;10.624;2023-12-20T00:10:46;1.25;;;0.90;;
44722;SDS011;30451;48.638;10.624;2023-12-20T00:13:12;1.45;;;1.00;;
44722;SDS011;30451;48.638;10.624;2023-12-20T00:15:37;1.40;;;1.00;;
44722;SDS011;30451;48.638;10.624;2023-12-20T00:18:03;2.58;;;1.08;;
44722;SDS011;30451;48.638;10.624;2023-12-20T00:20:29;2.17;;;1.10;;
44722;SDS011;30451;48.638;10.624;2023-12-20T00:22:56;1.77;;;1.10;;
44722;SDS011;30451;48.638;10.624;2023-12-20T00:25:25;1.50;;;0.90;;
44722;SDS011;30451;48.638;10.624;2023-12-20T00:27:51;1.23;;;0.90;;
44722;SDS011;30451;48.638;10.624;2023-12-20T00:30:17;1.73;;;1.05;;
44722;SDS011;30451;48.638;10.624;2023-12-20T00:32:43;2.00;;;1.13;;
44722;SDS011;30451;48.638;10.624;2023-12-20T00:35:14;1.40;;;0.90;;
44722;SDS011;30451;48.638;10.624;2023-12-20T00:37:41;1.95;;;1.15;;
44722;SDS011;30451;48.638;10.624;2023-12-20T00:40:07;1.70;;;1.00;;
44722;SDS011;30451;48.638;10.624;2023-12-20T00:42:34;1.90;;;0.98;;
44722;SDS011;30451;48.638;10.624;2023-12-20T00:45:00;1.38;;;1.00;;
44722;SDS011;30451;48.638;10.624;2023-12-20T00:47:26;1.58;;;1.00;;
44722;SDS011;30451;48.638;10.624;2023-12-20T00:49:51;2.28;;;1.13;;
44722;SDS011;30451;48.638;10.624;2023-12-20T00:52:17;2.15;;;1.00;;
44722;SDS011;30451;48.638;10.624;2023-12-20T00:54:43;1.50;;;1.10;;
44722;SDS011;30451;48.638;10.624;2023-12-20T00:57:09;1.55;;;1.00;;
44722;SDS011;30451;48.638;10.624;2023-12-20T00:59:35;1.65;;;1.00;;
44722;SDS011;30451;48.638;10.624;2023-12-20T01:02:00;1.70;;;1.08;;
44722;SDS011;30451;48.638;10.624;2023-12-20T01:04:26;1.13;;;0.90;;
44722;SDS011;30451;48.638;10.624;2023-12-20T01:06:52;1.38;;;0.90;;
44722;SDS011;30451;48.638;10.624;2023-12-20T01:09:18;1.33;;;0.90;;
44722;SDS011;30451;48.638;10.624;2023-12-20T01:11:44;1.23;;;0.85;;
44722;SDS011;30451;48.638;10.624;2023-12-20T01:14:11;1.85;;;1.00;;
44722;SDS011;30451;48.638;10.624;2023-12-20T01:16:37;1.83;;;1.02;;
44722;SDS011;30451;48.638;10.624;2023-12-20T01:19:03;1.70;;;1.10;;
44722;SDS011;30451;48.638;10.624;2023-12-20T01:21:28;1.20;;;0.90;;
44722;SDS011;30451;48.638;10.624;2023-12-20T01:23:54;2.72;;;1.55;;
44722;SDS011;30451;48.638;10.624;2023-12-20T01:26:20;1.88;;;1.00;;
44722;SDS011;30451;48.638;10.624;2023-12-20T01:28:45;1.77;;;1.00;;
44722;SDS011;30451;48.638;10.624;2023-12-20T01:31:11;1.40;;;1.00;;
44722;SDS011;30451;48.638;10.624;2023-12-20T01:33:36;1.67;;;0.93;;
44722;SDS011;30451;48.638;10.624;2023-12-20T01:36:02;1.63;;;1.00;;
44722;SDS011;30451;48.638;10.624;2023-12-20T01:38:28;1.85;;;1.00;;
44722;SDS011;30451;48.638;10.624;2023-12-20T01:40:54;2.13;;;1.15;;
44722;SDS011;30451;48.638;10.624;2023-12-20T01:43:20;1.73;;;0.90;;
44722;SDS011;30451;48.638;10.624;2023-12-20T01:45:46;2.75;;;1.00;;
44722;SDS011;30451;48.638;10.624;2023-12-20T01:48:12;1.80;;;0.90;;
44722;SDS011;30451;48.638;10.624;2023-12-20T01:50:39;1.63;;;0.90;;
44722;SDS011;30451;48.638;10.624;2023-12-20T01:53:07;1.20;;;0.90;;
44722;SDS011;30451;48.638;10.624;2023-12-20T01:55:34;1.48;;;0.90;;
44722;SDS011;30451;48.638;10.624;2023-12-20T01:58:01;1.55;;;1.00;;
44722;SDS011;30451;48.638;10.624;2023-12-20T02:00:28;0.98;;;0.88;;
44722;SDS011;30451;48.638;10.624;2023-12-20T02:02:55;1.55;;;0.93;;
44722;SDS011;30451;48.638;10.624;2023-12-20T02:05:21;1.75;;;0.93;;
44722;SDS011;30451;48.638;10.624;2023-12-20T02:07:49;1.33;;;1.00;;
44722;SDS011;30451;48.638;10.624;2023-12-20T02:10:15;1.35;;;0.93;;
44722;SDS011;30451;48.638;10.624;2023-12-20T02:12:41;1.30;;;0.90;;
44722;SDS011;30451;48.638;10.624;2023-12-20T02:15:06;1.30;;;0.98;;
44722;SDS011;30451;48.638;10.624;2023-12-20T02:17:33;1.00;;;0.80;;
44722;SDS011;30451;48.638;10.624;2023-12-20T02:19:59;1.33;;;1.00;;
44722;SDS011;30451;48.638;10.624;2023-12-20T02:22:24;1.40;;;1.00;;
44722;SDS011;30451;48.638;10.624;2023-12-20T02:24:50;1.27;;;0.90;;
44722;SDS011;30451;48.638;10.624;2023-12-20T02:27:16;1.27;;;0.80;;
44722;SDS011;30451;48.638;10.624;2023-12-20T02:29:44;1.00;;;0.80;;
44722;SDS011;30451;48.638;10.624;2023-12-20T02:32:12;0.90;;;0.80;;
44722;SDS011;30451;48.638;10.624;2023-12-20T02:34:37;1.35;;;0.95;;
44722;SDS011;30451;48.638;10.624;2023-12-20T02:37:03;1.13;;;0.85;;
44722;SDS011;30451;48.638;10.624;2023-12-20T02:39:29;2.03;;;1.00;;
44722;SDS011;30451;48.638;10.624;2023-12-20T02:41:55;1.40;;;0.90;;
44722;SDS011;30451;48.638;10.624;2023-12-20T02:44:21;1.52;;;0.80;;
44722;SDS011;30451;48.638;10.624;2023-12-20T02:46:46;1.55;;;0.93;;
44722;SDS011;30451;48.638;10.624;2023-12-20T02:49:12;1.15;;;0.82;;
44722;SDS011;30451;48.638;10.624;2023-12-20T02:51:37;1.30;;;0.90;;
44722;SDS011;30451;48.638;10.624;2023-12-20T02:54:03;1.42;;;0.93;;
44722;SDS011;30451;48.638;10.624;2023-12-20T02:56:29;1.23;;;0.80;;
44722;SDS011;30451;48.638;10.624;2023-12-20T02:58:55;1.27;;;0.90;;
44722;SDS011;30451;48.638;10.624;2023-12-20T03:01:21;1.10;;;0.80;;
44722;SDS011;30451;48.638;10.624;2023-12-20T03:03:46;1.40;;;0.80;;
44722;SDS011;30451;48.638;10.624;2023-12-20T03:06:15;1.60;;;0.93;;
44722;SDS011;30451;48.638;10.624;2023-12-20T03:08:44;1.15;;;0.90;;
44722;SDS011;30451;48.638;10.624;2023-12-20T03:11:10;1.13;;;0.80;;
44722;SDS011;30451;48.638;10.624;2023-12-20T03:13:36;1.05;;;0.90;;
44722;SDS011;30451;48.638;10.624;2023-12-20T03:16:07;1.08;;;0.85;;
44722;SDS011;30451;48.638;10.624;2023-12-20T03:18:34;1.60;;;0.90;;
44722;SDS011;30451;48.638;10.624;2023-12-20T03:20:59;1.02;;;0.80;;
44722;SDS011;30451;48.638;10.624;2023-12-20T03:23:25;1.15;;;0.90;;
44722;SDS011;30451;48.638;10.624;2023-12-20T03:25:52;0.98;;;0.70;;
44722;SDS011;30451;48.638;10.624;2023-12-20T03:28:17;1.25;;;0.90;;
44722;SDS011;30451;48.638;10.624;2023-12-20T03:30:44;0.93;;;0.70;;
44722;SDS011;30451;48.638;10.624;2023-12-20T03:33:09;1.27;;;0.75;;
44722;SDS011;30451;48.638;10.624;2023-12-20T03:35:35;1.20;;;0.70;;
44722;SDS011;30451;48.638;10.624;2023-12-20T03:38:01;0.80;;;0.80;;
44722;SDS011;30451;48.638;10.624;2023-12-20T03:40:27;1.00;;;0.70;;
44722;SDS011;30451;48.638;10.624;2023-12-20T03:42:52;1.25;;;0.82;;
44722;SDS011;30451;48.638;10.624;2023-12-20T03:45:18;1.75;;;0.85;;
44722;SDS011;30451;48.638;10.624;2023-12-20T03:47:43;1.48;;;1.05;;
44722;SDS011;30451;48.638;10.624;2023-12-20T03:50:09;0.88;;;0.75;;
44722;SDS011;30451;48.638;10.624;2023-12-20T03:52:34;0.98;;;0.70;;
44722;SDS011;30451;48.638;10.624;2023-12-20T03:55:00;1.05;;;0.90;;
44722;SDS011;30451;48.638;10.624;2023-12-20T03:57:26;1.10;;;0.80;;
44722;SDS011;30451;48.638;10.624;2023-12-20T03:59:51;1.13;;;0.80;;
44722;SDS011;30451;48.638;10.624;2023-12-20T04:02:17;0.95;;;0.80;;
44722;SDS011;30451;48.638;10.624;2023-12-20T04:04:43;1.42;;;0.70;;
44722;SDS011;30451;48.638;10.624;2023-12-20T04:07:08;1.45;;;0.80;;
44722;SDS011;30451;48.638;10.624;2023-12-20T04:09:34;1.77;;;1.00;;
44722;SDS011;30451;48.638;10.624;2023-12-20T04:11:59;1.35;;;0.80;;
44722;SDS011;30451;48.638;10.624;2023-12-20T04:14:28;1.10;;;0.80;;
44722;SDS011;30451;48.638;10.624;2023-12-20T04:16:54;0.93;;;0.70;;
44722;SDS011;30451;48.638;10.624;2023-12-20T04:19:20;1.05;;;0.80;;
44722;SDS011;30451;48.638;10.624;2023-12-20T04:21:45;1.20;;;0.77;;
44722;SDS011;30451;48.638;10.624;2023-12-20T04:24:11;0.90;;;0.65;;
44722;SDS011;30451;48.638;10.624;2023-12-20T04:26:36;0.95;;;0.70;;
44722;SDS011;30451;48.638;10.624;2023-12-20T04:29:02;0.88;;;0.70;;
44722;SDS011;30451;48.638;10.624;2023-12-20T04:31:27;1.08;;;0.77;;
44722;SDS011;30451;48.638;10.624;2023-12-20T04:33:53;1.15;;;0.70;;
44722;SDS011;30451;48.638;10.624;2023-12-20T04:36:19;1.00;;;0.70;;
44722;SDS011;30451;48.638;10.624;2023-12-20T04:38:44;0.93;;;0.80;;
44722;SDS011;30451;48.638;10.624;2023-12-20T04:41:10;1.13;;;0.70;;
44722;SDS011;30451;48.638;10.624;2023-12-20T04:43:35;0.93;;;0.70;;
44722;SDS011;30451;48.638;10.624;2023-12-20T04:46:01;0.80;;;0.70;;
44722;SDS011;30451;48.638;10.624;2023-12-20T04:48:27;0.95;;;0.80;;
44722;SDS011;30451;48.638;10.624;2023-12-20T04:50:52;0.77;;;0.73;;
44722;SDS011;30451;48.638;10.624;2023-12-20T04:53:18;0.88;;;0.60;;
44722;SDS011;30451;48.638;10.624;2023-12-20T04:55:44;1.77;;;0.68;;
44722;SDS011;30451;48.638;10.624;2023-12-20T04:58:09;1.20;;;0.75;;
44722;SDS011;30451;48.638;10.624;2023-12-20T05:00:35;1.55;;;0.80;;
44722;SDS011;30451;48.638;10.624;2023-12-20T05:03:01;1.67;;;0.90;;
44722;SDS011;30451;48.638;10.624;2023-12-20T05:05:26;1.30;;;0.80;;
44722;SDS011;30451;48.638;10.624;2023-12-20T05:07:52;2.03;;;0.75;;
44722;SDS011;30451;48.638;10.624;2023-12-20T05:10:17;1.65;;;0.90;;
44722;SDS011;30451;48.638;10.624;2023-12-20T05:12:43;1.90;;;0.80;;
44722;SDS011;30451;48.638;10.624;2023-12-20T05:15:08;1.38;;;1.00;;
44722;SDS011;30451;48.638;10.624;2023-12-20T05:17:34;1.80;;;0.80;;
44722;SDS011;30451;48.638;10.624;2023-12-20T05:20:00;1.60;;;0.85;;
44722;SDS011;30451;48.638;10.624;2023-12-20T05:22:26;1.17;;;0.80;;
44722;SDS011;30451;48.638;10.624;2023-12-20T05:24:52;1.40;;;0.90;;
44722;SDS011;30451;48.638;10.624;2023-12-20T05:27:18;1.27;;;0.90;;
44722;SDS011;30451;48.638;10.624;2023-12-20T05:29:43;1.35;;;0.70;;
44722;SDS011;30451;48.638;10.624;2023-12-20T05:32:09;1.40;;;0.80;;
44722;SDS011;30451;48.638;10.624;2023-12-20T05:34:35;1.65;;;0.93;;
44722;SDS011;30451;48.638;10.624;2023-12-20T05:37:01;1.38;;;0.80;;
44722;SDS011;30451;48.638;10.624;2023-12-20T05:39:27;1.52;;;0.90;;
44722;SDS011;30451;48.638;10.624;2023-12-20T05:41:53;0.90;;;0.75;;
44722;SDS011;30451;48.638;10.624;2023-12-20T05:44:18;2.55;;;0.90;;
44722;SDS011;30451;48.638;10.624;2023-12-20T05:46:44;2.63;;;0.93;;
44722;SDS011;30451;48.638;10.624;2023-12-20T05:49:10;1.88;;;0.80;;
44722;SDS011;30451;48.638;10.624;2023-12-20T05:51:35;1.70;;;0.75;;
44722;SDS011;30451;48.638;10.624;2023-12-20T05:54:01;2.38;;;1.00;;
44722;SDS011;30451;48.638;10.624;2023-12-20T05:56:27;1.88;;;0.90;;
44722;SDS011;30451;48.638;10.624;2023-12-20T05:58:52;1.23;;;0.77;;
44722;SDS011;30451;48.638;10.624;2023-12-20T06:01:18;1.70;;;0.85;;
44722;SDS011;30451;48.638;10.624;2023-12-20T06:03:44;1.75;;;1.00;;
44722;SDS011;30451;48.638;10.624;2023-12-20T06:06:11;1.33;;;0.80;;
44722;SDS011;30451;48.638;10.624;2023-12-20T06:08:37;1.23;;;0.70;;
44722;SDS011;30451;48.638;10.624;2023-12-20T06:11:04;1.15;;;0.70;;
44722;SDS011;30451;48.638;10.624;2023-12-20T06:13:30;1.58;;;0.80;;
44722;SDS011;30451;48.638;10.624;2023-12-20T06:15:56;2.00;;;0.90;;
44722;SDS011;30451;48.638;10.624;2023-12-20T06:18:22;1.42;;;0.77;;
44722;SDS011;30451;48.638;10.624;2023-12-20T06:20:48;1.95;;;1.00;;
44722;SDS011;30451;48.638;10.624;2023-12-20T06:23:13;1.88;;;1.10;;
44722;SDS011;30451;48.638;10.624;2023-12-20T06:25:39;1.42;;;0.85;;
44722;SDS011;30451;48.638;10.624;2023-12-20T06:28:05;1.75;;;0.80;;
44722;SDS011;30451;48.638;10.624;2023-12-20T06:30:31;1.65;;;0.77;;
44722;SDS011;30451;48.638;10.624;2023-12-20T06:32:57;1.05;;;0.70;;
44722;SDS011;30451;48.638;10.624;2023-12-20T06:35:23;1.08;;;0.75;;
44722;SDS011;30451;48.638;10.624;2023-12-20T06:37:49;1.48;;;0.90;;
44722;SDS011;30451;48.638;10.624;2023-12-20T06:40:14;2.00;;;0.90;;
44722;SDS011;30451;48.638;10.624;2023-12-20T06:42:41;1.40;;;0.80;;
44722;SDS011;30451;48.638;10.624;2023-12-20T06:45:07;1.73;;;0.90;;
44722;SDS011;30451;48.638;10.624;2023-12-20T06:47:32;1.33;;;0.85;;
44722;SDS011;30451;48.638;10.624;2023-12-20T06:49:58;0.95;;;0.70;;
44722;SDS011;30451;48.638;10.624;2023-12-20T06:52:24;1.05;;;0.75;;
44722;SDS011;30451;48.638;10.624;2023-12-20T06:54:49;1.50;;;0.80;;
44722;SDS011;30451;48.638;10.624;2023-12-20T06:57:15;1.50;;;0.80;;
44722;SDS011;30451;48.638;10.624;2023-12-20T06:59:41;2.00;;;0.80;;
44722;SDS011;30451;48.638;10.624;2023-12-20T07:02:08;1.42;;;0.80;;
44722;SDS011;30451;48.638;10.624;2023-12-20T07:04:34;1.25;;;0.80;;
44722;SDS011;30451;48.638;10.624;2023-12-20T07:07:03;2.28;;;0.80;;
44722;SDS011;30451;48.638;10.624;2023-12-20T07:09:29;1.75;;;0.82;;
44722;SDS011;30451;48.638;10.624;2023-12-20T07:11:54;1.05;;;0.80;;
44722;SDS011;30451;48.638;10.624;2023-12-20T07:14:20;2.08;;;1.15;;
44722;SDS011;30451;48.638;10.624;2023-12-20T07:16:46;1.25;;;1.00;;
44722;SDS011;30451;48.638;10.624;2023-12-20T07:19:12;2.10;;;0.90;;
44722;SDS011;30451;48.638;10.624;2023-12-20T07:21:38;1.55;;;1.00;;
44722;SDS011;30451;48.638;10.624;2023-12-20T07:24:03;1.65;;;0.90;;
44722;SDS011;30451;48.638;10.624;2023-12-20T07:26:29;1.40;;;0.80;;
44722;SDS011;30451;48.638;10.624;2023-12-20T07:28:55;2.00;;;0.80;;
44722;SDS011;30451;48.638;10.624;2023-12-20T07:31:20;1.45;;;0.73;;
44722;SDS011;30451;48.638;10.624;2023-12-20T07:33:46;1.52;;;0.90;;
44722;SDS011;30451;48.638;10.624;2023-12-20T07:36:12;1.50;;;0.80;;
44722;SDS011;30451;48.638;10.624;2023-12-20T07:38:38;1.45;;;0.85;;
44722;SDS011;30451;48.638;10.624;2023-12-20T07:41:03;1.50;;;0.70;;
44722;SDS011;30451;48.638;10.624;2023-12-20T07:43:30;1.42;;;1.00;;
44722;SDS011;30451;48.638;10.624;2023-12-20T07:45:55;2.20;;;0.90;;
44722;SDS011;30451;48.638;10.624;2023-12-20T07:48:21;1.85;;;0.93;;
44722;SDS011;30451;48.638;10.624;2023-12-20T07:50:46;1.35;;;0.90;;
44722;SDS011;30451;48.638;10.624;2023-12-20T07:53:12;0.93;;;0.70;;
44722;SDS011;30451;48.638;10.624;2023-12-20T07:55:38;2.00;;;1.00;;
44722;SDS011;30451;48.638;10.624;2023-12-20T07:58:04;1.30;;;0.80;;
44722;SDS011;30451;48.638;10.624;2023-12-20T08:00:30;1.23;;;0.80;;
44722;SDS011;30451;48.638;10.624;2023-12-20T08:02:55;2.25;;;1.02;;
44722;SDS011;30451;48.638;10.624;2023-12-20T08:05:21;0.77;;;0.70;;
44722;SDS011;30451;48.638;10.624;2023-12-20T08:07:46;1.77;;;1.00;;
44722;SDS011;30451;48.638;10.624;2023-12-20T08:10:12;1.48;;;0.90;;
44722;SDS011;30451;48.638;10.624;2023-12-20T08:12:38;1.48;;;0.95;;
44722;SDS011;30451;48.638;10.624;2023-12-20T08:15:05;2.08;;;1.00;;
44722;SDS011;30451;48.638;10.624;2023-12-20T08:17:31;1.63;;;0.85;;
44722;SDS011;30451;48.638;10.624;2023-12-20T08:19:56;2.13;;;1.20;;
44722;SDS011;30451;48.638;10.624;2023-12-20T08:22:22;1.88;;;1.20;;
44722;SDS011;30451;48.638;10.624;2023-12-20T08:24:47;1.38;;;0.90;;
44722;SDS011;30451;48.638;10.624;2023-12-20T08:27:13;2.20;;;0.90;;
44722;SDS011;30451;48.638;10.624;2023-12-20T08:29:38;1.70;;;0.90;;
44722;SDS011;30451;48.638;10.624;2023-12-20T08:32:04;1.02;;;0.80;;
44722;SDS011;30451;48.638;10.624;2023-12-20T08:34:30;0.77;;;0.60;;
44722;SDS011;30451;48.638;10.624;2023-12-20T08:36:56;1.20;;;0.90;;
44722;SDS011;30451;48.638;10.624;2023-12-20T08:39:21;1.67;;;0.80;;
44722;SDS011;30451;48.638;10.624;2023-12-20T08:41:47;2.13;;;0.95;;
44722;SDS011;30451;48.638;10.624;2023-12-20T08:44:13;1.75;;;0.73;;
44722;SDS011;30451;48.638;10.624;2023-12-20T08:46:39;1.17;;;0.70;;
44722;SDS011;30451;48.638;10.624;2023-12-20T08:49:04;1.70;;;0.80;;
44722;SDS011;30451;48.638;10.624;2023-12-20T08:51:30;3.17;;;0.90;;
44722;SDS011;30451;48.638;10.624;2023-12-20T08:53:56;1.42;;;0.88;;
44722;SDS011;30451;48.638;10.624;2023-12-20T08:56:21;0.93;;;0.70;;
44722;SDS011;30451;48.638;10.624;2023-12-20T08:58:47;0.82;;;0.60;;
44722;SDS011;30451;48.638;10.624;2023-12-20T09:01:13;0.95;;;0.70;;
44722;SDS011;30451;48.638;10.624;2023-12-20T09:03:39;0.93;;;0.80;;
44722;SDS011;30451;48.638;10.624;2023-12-20T09:06:05;0.90;;;0.77;;
44722;SDS011;30451;48.638;10.624;2023-12-20T09:08:31;1.15;;;0.80;;
44722;SDS011;30451;48.638;10.624;2023-12-20T09:10:57;1.73;;;0.60;;
44722;SDS011;30451;48.638;10.624;2023-12-20T09:13:23;1.23;;;0.80;;
44722;SDS011;30451;48.638;10.624;2023-12-20T09:15:56;0.82;;;0.70;;
44722;SDS011;30451;48.638;10.624;2023-12-20T09:18:22;1.25;;;0.80;;
44722;SDS011;30451;48.638;10.624;2023-12-20T09:20:48;1.40;;;0.80;;
44722;SDS011;30451;48.638;10.624;2023-12-20T09:23:13;1.23;;;0.80;;
44722;SDS011;30451;48.638;10.624;2023-12-20T09:25:39;1.10;;;0.70;;
44722;SDS011;30451;48.638;10.624;2023-12-20T09:28:05;0.95;;;0.70;;
44722;SDS011;30451;48.638;10.624;2023-12-20T09:30:30;1.00;;;0.73;;
44722;SDS011;30451;48.638;10.624;2023-12-20T09:32:58;1.50;;;0.88;;
44722;SDS011;30451;48.638;10.624;2023-12-20T09:35:24;1.17;;;0.90;;
44722;SDS011;30451;48.638;10.624;2023-12-20T09:37:50;1.92;;;0.80;;
44722;SDS011;30451;48.638;10.624;2023-12-20T09:40:18;2.25;;;0.85;;
44722;SDS011;30451;48.638;10.624;2023-12-20T09:42:47;0.90;;;0.80;;
44722;SDS011;30451;48.638;10.624;2023-12-20T09:45:20;1.58;;;0.80;;
44722;SDS011;30451;48.638;10.624;2023-12-20T09:47:46;1.58;;;0.82;;
44722;SDS011;30451;48.638;10.624;2023-12-20T09:50:14;1.67;;;0.80;;
44722;SDS011;30451;48.638;10.624;2023-12-20T09:52:40;0.93;;;0.70;;
44722;SDS011;30451;48.638;10.624;2023-12-20T09:55:08;1.50;;;0.90;;
44722;SDS011;30451;48.638;10.624;2023-12-20T09:57:34;1.30;;;0.90;;
44722;SDS011;30451;48.638;10.624;2023-12-20T10:00:00;1.67;;;0.73;;
44722;SDS011;30451;48.638;10.624;2023-12-20T10:02:26;1.52;;;0.73;;
44722;SDS011;30451;48.638;10.624;2023-12-20T10:04:52;1.15;;;0.73;;
44722;SDS011;30451;48.638;10.624;2023-12-20T10:07:19;0.80;;;0.70;;
44722;SDS011;30451;48.638;10.624;2023-12-20T10:09:45;1.10;;;0.80;;
44722;SDS011;30451;48.638;10.624;2023-12-20T10:12:12;1.30;;;0.80;;
44722;SDS011;30451;48.638;10.624;2023-12-20T10:14:38;1.00;;;0.70;;
44722;SDS011;30451;48.638;10.624;2023-12-20T10:17:04;1.25;;;0.75;;
44722;SDS011;30451;48.638;10.624;2023-12-20T10:19:31;1.02;;;0.77;;
44722;SDS011;30451;48.638;10.624;2023-12-20T10:21:59;0.82;;;0.70;;
44722;SDS011;30451;48.638;10.624;2023-12-20T10:24:28;1.30;;;0.70;;
44722;SDS011;30451;48.638;10.624;2023-12-20T10:27:07;0.90;;;0.77;;
44722;SDS011;30451;48.638;10.624;2023-12-20T10:29:36;1.38;;;0.75;;
44722;SDS011;30451;48.638;10.624;2023-12-20T10:32:22;1.58;;;0.88;;
44722;SDS011;30451;48.638;10.624;2023-12-20T10:34:49;1.15;;;0.70;;
44722;SDS011;30451;48.638;10.624;2023-12-20T10:37:15;0.98;;;0.80;;
44722;SDS011;30451;48.638;10.624;2023-12-20T10:39:41;0.73;;;0.65;;
44722;SDS011;30451;48.638;10.624;2023-12-20T10:42:08;0.93;;;0.80;;
44722;SDS011;30451;48.638;10.624;2023-12-20T10:44:36;1.33;;;0.70;;
44722;SDS011;30451;48.638;10.624;2023-12-20T10:47:02;1.13;;;0.80;;
44722;SDS011;30451;48.638;10.624;2023-12-20T10:49:29;1.08;;;0.73;;
44722;SDS011;30451;48.638;10.624;2023-12-20T10:51:56;0.82;;;0.70;;
44722;SDS011;30451;48.638;10.624;2023-12-20T10:54:27;2.75;;;0.90;;
44722;SDS011;30451;48.638;10.624;2023-12-20T10:56:53;1.42;;;0.80;;
44722;SDS011;30451;48.638;10.624;2023-12-20T10:59:19;1.98;;;1.10;;
44722;SDS011;30451;48.638;10.624;2023-12-20T11:01:47;2.20;;;1.30;;
44722;SDS011;30451;48.638;10.624;2023-12-20T11:04:15;2.60;;;1.60;;
44722;SDS011;30451;48.638;10.624;2023-12-20T11:06:58;2.55;;;1.45;;
44722;SDS011;30451;48.638;10.624;2023-12-20T11:10:07;2.40;;;1.40;;
44722;SDS011;30451;48.638;10.624;2023-12-20T11:12:52;3.10;;;1.80;;
44722;SDS011;30451;48.638;10.624;2023-12-20T11:15:22;3.38;;;1.67;;
44722;SDS011;30451;48.638;10.624;2023-12-20T11:17:56;3.30;;;1.80;;
44722;SDS011;30451;48.638;10.624;2023-12-20T11:20:24;3.13;;;1.67;;
44722;SDS011;30451;48.638;10.624;2023-12-20T11:22:59;2.53;;;1.52;;
44722;SDS011;30451;48.638;10.624;2023-12-20T11:25:25;3.15;;;1.65;;
44722;SDS011;30451;48.638;10.624;2023-12-20T11:28:10;3.03;;;1.48;;
44722;SDS011;30451;48.638;10.624;2023-12-20T11:33:13;2.83;;;1.75;;
44722;SDS011;30451;48.638;10.624;2023-12-20T11:35:39;2.90;;;1.55;;
44722;SDS011;30451;48.638;10.624;2023-12-20T11:38:09;3.25;;;1.80;;
44722;SDS011;30451;48.638;10.624;2023-12-20T11:40:35;3.05;;;1.67;;
44722;SDS011;30451;48.638;10.624;2023-12-20T11:43:02;2.90;;;1.77;;
44722;SDS011;30451;48.638;10.624;2023-12-20T11:45:29;3.65;;;1.88;;
44722;SDS011;30451;48.638;10.624;2023-12-20T11:47:56;2.63;;;1.42;;
44722;SDS011;30451;48.638;10.624;2023-12-20T11:50:22;3.40;;;2.00;;
44722;SDS011;30451;48.638;10.624;2023-12-20T11:52:49;2.95;;;1.70;;
44722;SDS011;30451;48.638;10.624;2023-12-20T11:55:16;3.53;;;1.80;;
44722;SDS011;30451;48.638;10.624;2023-12-20T11:57:42;3.25;;;1.70;;
44722;SDS011;30451;48.638;10.624;2023-12-20T12:00:12;2.85;;;1.70;;
44722;SDS011;30451;48.638;10.624;2023-12-20T12:02:39;3.45;;;1.80;;
44722;SDS011;30451;48.638;10.624;2023-12-20T12:05:05;3.20;;;1.70;;
44722;SDS011;30451;48.638;10.624;2023-12-20T12:07:31;3.88;;;1.70;;
44722;SDS011;30451;48.638;10.624;2023-12-20T12:09:57;4.03;;;1.80;;
44722;SDS011;30451;48.638;10.624;2023-12-20T12:12:23;2.53;;;1.50;;
44722;SDS011;30451;48.638;10.624;2023-12-20T12:14:50;3.33;;;1.77;;
44722;SDS011;30451;48.638;10.624;2023-12-20T12:17:16;2.95;;;1.75;;
44722;SDS011;30451;48.638;10.624;2023-12-20T12:19:42;2.60;;;1.55;;
44722;SDS011;30451;48.638;10.624;2023-12-20T12:22:09;2.92;;;1.60;;
44722;SDS011;30451;48.638;10.624;2023-12-20T12:24:41;3.58;;;2.13;;
44722;SDS011;30451;48.638;10.624;2023-12-20T12:27:11;3.15;;;1.55;;
44722;SDS011;30451;48.638;10.624;2023-12-20T12:29:38;2.80;;;1.52;;
44722;SDS011;30451;48.638;10.624;2023-12-20T12:32:04;3.15;;;1.80;;
44722;SDS011;30451;48.638;10.624;2023-12-20T12:34:37;3.35;;;1.80;;
44722;SDS011;30451;48.638;10.624;2023-12-20T12:37:06;3.13;;;1.55;;
44722;SDS011;30451;48.638;10.624;2023-12-20T12:39:31;2.47;;;1.67;;
44722;SDS011;30451;48.638;10.624;2023-12-20T12:41:57;2.88;;;1.67;;
44722;SDS011;30451;48.638;10.624;2023-12-20T12:44:23;2.80;;;1.50;;
44722;SDS011;30451;48.638;10.624;2023-12-20T12:46:50;2.63;;;1.50;;
44722;SDS011;30451;48.638;10.624;2023-12-20T12:49:18;2.78;;;1.60;;
44722;SDS011;30451;48.638;10.624;2023-12-20T12:51:47;3.22;;;1.67;;
44722;SDS011;30451;48.638;10.624;2023-12-20T12:54:13;4.10;;;1.60;;
44722;SDS011;30451;48.638;10.624;2023-12-20T12:56:40;3.00;;;1.70;;
44722;SDS011;30451;48.638;10.624;2023-12-20T12:59:06;3.15;;;1.65;;
44722;SDS011;30451;48.638;10.624;2023-12-20T13:01:32;2.58;;;1.70;;
44722;SDS011;30451;48.638;10.624;2023-12-20T13:03:57;2.40;;;1.50;;
44722;SDS011;30451;48.638;10.624;2023-12-20T13:06:23;2.97;;;1.60;;
44722;SDS011;30451;48.638;10.624;2023-12-20T13:08:49;3.55;;;1.60;;
44722;SDS011;30451;48.638;10.624;2023-12-20T13:11:15;3.25;;;1.80;;
44722;SDS011;30451;48.638;10.624;2023-12-20T13:13:40;3.45;;;1.70;;
44722;SDS011;30451;48.638;10.624;2023-12-20T13:16:06;3.53;;;1.75;;
44722;SDS011;30451;48.638;10.624;2023-12-20T13:18:32;2.65;;;1.50;;
44722;SDS011;30451;48.638;10.624;2023-12-20T13:20:58;2.97;;;1.60;;
44722;SDS011;30451;48.638;10.624;2023-12-20T13:23:23;2.83;;;1.60;;
44722;SDS011;30451;48.638;10.624;2023-12-20T13:25:49;3.28;;;1.50;;
44722;SDS011;30451;48.638;10.624;2023-12-20T13:28:15;4.65;;;1.67;;
44722;SDS011;30451;48.638;10.624;2023-12-20T13:30:40;2.38;;;1.60;;
44722;SDS011;30451;48.638;10.624;2023-12-20T13:33:06;2.80;;;1.42;;
44722;SDS011;30451;48.638;10.624;2023-12-20T13:35:32;4.05;;;1.30;;
44722;SDS011;30451;48.638;10.624;2023-12-20T13:37:59;2.90;;;1.60;;
44722;SDS011;30451;48.638;10.624;2023-12-20T13:40:25;3.88;;;1.60;;
44722;SDS011;30451;48.638;10.624;2023-12-20T13:42:51;3.95;;;1.50;;
44722;SDS011;30451;48.638;10.624;2023-12-20T13:45:17;3.60;;;1.70;;
44722;SDS011;30451;48.638;10.624;2023-12-20T13:47:42;3.63;;;1.60;;
44722;SDS011;30451;48.638;10.624;2023-12-20T13:50:08;3.67;;;1.83;;
44722;SDS011;30451;48.638;10.624;2023-12-20T13:52:34;3.50;;;1.60;;
44722;SDS011;30451;48.638;10.624;2023-12-20T13:55:00;2.85;;;1.40;;
44722;SDS011;30451;48.638;10.624;2023-12-20T13:57:26;4.65;;;1.63;;
44722;SDS011;30451;48.638;10.624;2023-12-20T13:59:55;5.53;;;1.50;;
44722;SDS011;30451;48.638;10.624;2023-12-20T14:02:23;3.58;;;1.90;;
44722;SDS011;30451;48.638;10.624;2023-12-20T14:04:49;4.03;;;1.85;;
44722;SDS011;30451;48.638;10.624;2023-12-20T14:07:15;2.95;;;1.60;;
44722;SDS011;30451;48.638;10.624;2023-12-20T14:09:41;2.95;;;1.70;;
44722;SDS011;30451;48.638;10.624;2023-12-20T14:12:13;4.35;;;1.77;;
44722;SDS011;30451;48.638;10.624;2023-12-20T14:14:39;3.17;;;1.52;;
44722;SDS011;30451;48.638;10.624;2023-12-20T14:17:04;3.50;;;1.70;;
44722;SDS011;30451;48.638;10.624;2023-12-20T14:19:32;3.10;;;1.48;;
44722;SDS011;30451;48.638;10.624;2023-12-20T14:21:58;3.88;;;1.83;;
44722;SDS011;30451;48.638;10.624;2023-12-20T14:24:27;3.25;;;1.60;;
44722;SDS011;30451;48.638;10.624;2023-12-20T14:26:53;3.15;;;1.60;;
44722;SDS011;30451;48.638;10.624;2023-12-20T14:29:19;3.63;;;1.63;;
44722;SDS011;30451;48.638;10.624;2023-12-20T14:31:44;2.67;;;1.50;;